Terminal Aerodrome Forecast
Issued by NWS

Home | Current Version | Previous Version | Graphics & Text | Print | Product List | Glossary On
Versions: 1 2 3 4 5 6 7 8 9 10 11 12 13 14 15 16 17 18 19 20 21 22 23 24 25 26 27
000
FTUS43 KTOP 231700
TAFFOE
TAF
KFOE 231722Z 2318/2418 14009KT P6SM BKN012 OVC025
     FM232100 14012KT P6SM SHRA BKN012 OVC025
     FM240200 14010KT 4SM RA VCTS BKN008CB OVC025
     FM240700 15008KT P6SM SHRA BKN008 OVC030=

USA.gov is the U.S. government's official web portal to all federal, state and local government web resources and services.